• Join FlightAware (Why Join?)
  • Login
  • US Flag 
11:56AM EDT


 

Airport Tracker/Info


-or-


 

Live Flight TrackerFlight Track Log ✈ DAL6048 ✈ 21-Apr-2013 ✈ KMHT - KLGA

Flight Track Log - Related Links

Times and Time Zones

All times are in EDT time to prevent confusion due to time zone crossing. See the DAL6048 flight status page for this flight to view local times or setup timezone preferences in your user account.

Time Position Orientation Groundspeed Altitude Reporting Facility
EDT Latitude Longitude Course Direction KTS MPH feet Rate Location/Type
09:04AM 42.9500 -71.4333 259° West 148 170 1,000  Level KA90
09:05AM 42.9608 -71.4500 312° West 159 183 1,700 2,100 Climbing Boston Center
09:06AM 42.9986 -71.4692 340° North 189 217 3,800 2,400 Climbing Boston Center
09:07AM 42.7304 -71.6742 228° Southwest  Level Estimated
09:07AM 43.0572 -71.5053 336° Northwest 195 224 6,600  Level Boston Center
09:08AM 42.6629 -71.7534 236° Southwest  Level Estimated
09:08AM 43.0931 -71.5644 310° West 206 237 9,000  Level Boston Center
09:09AM 42.5953 -71.8324 231° Southwest  Level Estimated
09:09AM 43.0936 -71.6469 271° West 212 244 11,200  Level Boston Center
09:10AM 42.5784 -71.9513 259° West  Level FlightAware Approximate
09:10AM 43.0525 -71.7128 229° Southwest 236 272 13,000  Level Boston Center
09:11AM 42.9989 -71.7956 228° Southwest 268 308 15,100 1,500 Climbing Boston Center
09:12AM 42.9514 -71.8700 229° Southwest 276 318 16,000 420 Climbing Boston Center
09:13AM 42.8914 -71.9669 230° Southwest 306 352 16,000  Level Boston Center
09:14AM 42.8394 -72.0436 227° Southwest 306 352 16,100  Climbing Boston Center
09:15AM 42.7814 -72.1375 230° Southwest 301 346 16,100  Level Boston Center
09:16AM 42.7317 -72.2139 228° Southwest 301 346 16,100  Level Boston Center
09:17AM 42.6797 -72.2989 230° Southwest 301 346 16,100  Level Boston Center
09:18AM 42.6214 -72.3836 227° Southwest 306 352 16,100 -60 Level Boston Center
09:19AM 42.5650 -72.4739 230° Southwest 306 352 16,000 -60 Descending Boston Center
09:20AM 42.5067 -72.5611 228° Southwest 306 352 16,000  Level Boston Center
09:21AM 42.4461 -72.6483 227° Southwest 311 358 16,000  Level Boston Center
09:22AM 42.3856 -72.7297 225° Southwest 317 365 16,000  Level Boston Center
09:23AM 42.3144 -72.8219 224° Southwest 322 371 16,000  Level Boston Center
09:24AM 42.2558 -72.8917 221° Southwest 322 371 16,000  Level Boston Center
09:25AM 42.1867 -72.9781 223° Southwest 316 364 16,000  Level Boston Center
09:26AM 42.1300 -73.0503 223° Southwest 316 364 16,000  Level Boston Center
09:27AM 42.0586 -73.1336 221° Southwest 316 364 16,000  Level Boston Center
09:28AM 41.9997 -73.2083 223° Southwest 316 364 16,000  Level Boston Center
09:29AM 41.9283 -73.2939 222° Southwest 316 364 16,000 -180 Level Boston Center
09:30AM 41.8653 -73.3656 220° Southwest 322 371 15,700 -900 Descending Boston Center
09:31AM 41.7792 -73.4367 212° Southwest 338 389 14,200 -1,500 Descending Boston Center
09:32AM 41.6972 -73.4911 206° Southwest 355 409 12,800 -1,560 Descending Boston Center
09:33AM 41.5989 -73.5339 198° South 355 409 11,100 -1,200 Descending Boston Center
09:35AM 41.4500 -73.6667 214° Southwest 257 296 9,000 -660 Descending New York TRACON
09:36AM 41.4000 -73.7167 217° Southwest 258 297 9,000 -480 Level New York TRACON
09:37AM 41.3500 -73.7833 225° Southwest 272 313 8,100 -540 Descending New York TRACON
09:38AM 41.2833 -73.7333 151° Southeast 273 314 8,000 -180 Descending New York TRACON
09:39AM 41.2167 -73.6833 151° Southeast 280 322 7,800 -840 Descending New York TRACON
09:40AM 41.1500 -73.6333 151° Southeast 272 313 6,400 -1,500 Descending New York TRACON
09:41AM 41.0833 -73.6000 159° South 268 308 4,900 -1,260 Descending New York TRACON
09:42AM 41.0167 -73.5833 169° South 262 302 4,000 -480 Descending New York TRACON
09:43AM 40.9500 -73.6167 201° Southwest 260 299 4,000  Level New York TRACON
09:44AM 40.8833 -73.6667 210° Southwest 267 307 4,000 -480 Level New York TRACON
09:45AM 40.8167 -73.7000 201° Southwest 257 296 3,200 -780 Descending New York TRACON
09:46AM 40.7667 -73.7333 207° Southwest 211 243 2,500 -780 Descending New York TRACON
09:47AM 40.7500 -73.7833 246° West 175 201 1,800 -840 Descending New York TRACON
09:48AM 40.7500 -73.8333 270° West 127 146 900 -900 Descending New York TRACON